sensor_id;sensor_type;location;lat;lon;timestamp;pressure;altitude;pressure_sealevel;temperature;humidity
64876;BME280;51369;49.862;9.908;2023-08-07T00:00:23;97726.84;;;14.25;79.69
64876;BME280;51369;49.862;9.908;2023-08-07T00:02:49;97723.25;;;14.24;79.17
64876;BME280;51369;49.862;9.908;2023-08-07T00:05:15;97722.38;;;14.24;78.97
64876;BME280;51369;49.862;9.908;2023-08-07T00:07:42;97728.91;;;14.21;78.44
64876;BME280;51369;49.862;9.908;2023-08-07T00:10:08;97736.16;;;14.21;78.09
64876;BME280;51369;49.862;9.908;2023-08-07T00:12:33;97733.66;;;14.18;78.41
64876;BME280;51369;49.862;9.908;2023-08-07T00:14:59;97748.22;;;14.17;79.58
64876;BME280;51369;49.862;9.908;2023-08-07T00:17:25;97750.16;;;14.15;78.53
64876;BME280;51369;49.862;9.908;2023-08-07T00:19:51;97758.31;;;14.15;78.56
64876;BME280;51369;49.862;9.908;2023-08-07T00:22:16;97749.38;;;14.13;79.17
64876;BME280;51369;49.862;9.908;2023-08-07T00:24:42;97751.13;;;14.14;79.00
64876;BME280;51369;49.862;9.908;2023-08-07T00:27:08;97751.22;;;14.12;79.61
64876;BME280;51369;49.862;9.908;2023-08-07T00:29:35;97754.06;;;14.11;79.83
64876;BME280;51369;49.862;9.908;2023-08-07T00:32:01;97756.00;;;14.09;78.81
64876;BME280;51369;49.862;9.908;2023-08-07T00:34:27;97757.94;;;14.07;78.23
64876;BME280;51369;49.862;9.908;2023-08-07T00:36:53;97751.63;;;14.06;78.57
64876;BME280;51369;49.862;9.908;2023-08-07T00:39:18;97748.16;;;14.04;78.66
64876;BME280;51369;49.862;9.908;2023-08-07T00:41:43;97763.69;;;14.02;78.60
64876;BME280;51369;49.862;9.908;2023-08-07T00:44:09;97758.34;;;14.00;78.56
64876;BME280;51369;49.862;9.908;2023-08-07T00:46:35;97765.63;;;14.00;80.01
64876;BME280;51369;49.862;9.908;2023-08-07T00:49:02;97768.44;;;13.98;80.45
64876;BME280;51369;49.862;9.908;2023-08-07T00:51:28;97768.63;;;13.95;80.25
64876;BME280;51369;49.862;9.908;2023-08-07T00:53:54;97767.88;;;13.93;79.73
64876;BME280;51369;49.862;9.908;2023-08-07T00:56:20;97763.41;;;13.92;80.47
64876;BME280;51369;49.862;9.908;2023-08-07T00:58:45;97769.81;;;13.91;80.19
64876;BME280;51369;49.862;9.908;2023-08-07T01:01:11;97771.66;;;13.91;80.47
64876;BME280;51369;49.862;9.908;2023-08-07T01:03:37;97768.94;;;13.91;80.24
64876;BME280;51369;49.862;9.908;2023-08-07T01:06:04;97790.75;;;13.89;80.93
64876;BME280;51369;49.862;9.908;2023-08-07T01:08:29;97766.44;;;13.88;80.35
64876;BME280;51369;49.862;9.908;2023-08-07T01:11:11;97771.75;;;13.89;81.08
64876;BME280;51369;49.862;9.908;2023-08-07T01:13:56;97775.81;;;13.96;80.80
64876;BME280;51369;49.862;9.908;2023-08-07T01:16:35;97773.09;;;13.96;81.06
64876;BME280;51369;49.862;9.908;2023-08-07T01:19:03;97781.13;;;13.98;80.34
64876;BME280;51369;49.862;9.908;2023-08-07T01:21:32;97782.97;;;13.97;79.28
64876;BME280;51369;49.862;9.908;2023-08-07T01:23:58;97772.03;;;13.99;79.48
64876;BME280;51369;49.862;9.908;2023-08-07T01:26:24;97783.84;;;13.98;79.83
64876;BME280;51369;49.862;9.908;2023-08-07T01:28:58;97785.78;;;13.96;79.96
64876;BME280;51369;49.862;9.908;2023-08-07T01:31:33;97793.06;;;13.95;79.39
64876;BME280;51369;49.862;9.908;2023-08-07T01:34:05;97787.72;;;13.94;79.25
64876;BME280;51369;49.862;9.908;2023-08-07T01:36:32;97792.19;;;13.95;78.79
64876;BME280;51369;49.862;9.908;2023-08-07T01:39:00;97781.53;;;13.92;78.78
64876;BME280;51369;49.862;9.908;2023-08-07T01:41:26;97780.56;;;13.93;78.86
64876;BME280;51369;49.862;9.908;2023-08-07T01:43:54;97791.53;;;13.91;79.23
64876;BME280;51369;49.862;9.908;2023-08-07T01:46:20;97795.22;;;13.90;78.41
64876;BME280;51369;49.862;9.908;2023-08-07T01:48:46;97797.03;;;13.90;79.07
64876;BME280;51369;49.862;9.908;2023-08-07T01:51:11;97803.19;;;13.79;79.04
64876;BME280;51369;49.862;9.908;2023-08-07T01:53:36;97799.81;;;13.76;78.99
64876;BME280;51369;49.862;9.908;2023-08-07T01:56:04;97803.41;;;13.76;79.23
64876;BME280;51369;49.862;9.908;2023-08-07T01:58:29;97810.66;;;13.76;78.78
64876;BME280;51369;49.862;9.908;2023-08-07T02:00:55;97807.38;;;13.71;78.67
64876;BME280;51369;49.862;9.908;2023-08-07T02:03:20;97809.22;;;13.70;79.20
64876;BME280;51369;49.862;9.908;2023-08-07T02:05:46;97820.06;;;13.70;79.19
64876;BME280;51369;49.862;9.908;2023-08-07T02:08:12;97809.22;;;13.70;79.97
64876;BME280;51369;49.862;9.908;2023-08-07T02:10:37;97812.91;;;13.69;79.48
64876;BME280;51369;49.862;9.908;2023-08-07T02:13:02;97807.47;;;13.69;79.69
64876;BME280;51369;49.862;9.908;2023-08-07T02:15:28;97820.16;;;13.68;78.87
64876;BME280;51369;49.862;9.908;2023-08-07T02:17:53;97817.47;;;13.68;80.13
64876;BME280;51369;49.862;9.908;2023-08-07T02:20:19;97817.56;;;13.67;79.76
64876;BME280;51369;49.862;9.908;2023-08-07T02:22:44;97822.22;;;13.65;79.23
64876;BME280;51369;49.862;9.908;2023-08-07T02:25:10;97825.78;;;13.65;79.17
64876;BME280;51369;49.862;9.908;2023-08-07T02:27:37;97833.06;;;13.65;78.98
64876;BME280;51369;49.862;9.908;2023-08-07T02:30:05;97841.09;;;13.66;80.20
64876;BME280;51369;49.862;9.908;2023-08-07T02:32:31;97840.22;;;13.66;81.43
64876;BME280;51369;49.862;9.908;2023-08-07T02:34:56;97841.09;;;13.66;80.63
64876;BME280;51369;49.862;9.908;2023-08-07T02:37:22;97848.56;;;13.63;79.29
64876;BME280;51369;49.862;9.908;2023-08-07T02:39:48;97835.88;;;13.63;79.17
64876;BME280;51369;49.862;9.908;2023-08-07T02:42:14;97835.00;;;13.63;80.17
64876;BME280;51369;49.862;9.908;2023-08-07T02:44:39;97838.78;;;13.60;79.74
64876;BME280;51369;49.862;9.908;2023-08-07T02:47:06;97836.06;;;13.60;79.15
64876;BME280;51369;49.862;9.908;2023-08-07T02:49:31;97839.75;;;13.59;78.61
64876;BME280;51369;49.862;9.908;2023-08-07T02:51:57;97847.97;;;13.58;79.50
64876;BME280;51369;49.862;9.908;2023-08-07T02:54:23;97848.75;;;13.60;79.98
64876;BME280;51369;49.862;9.908;2023-08-07T02:56:48;97846.13;;;13.58;79.68
64876;BME280;51369;49.862;9.908;2023-08-07T02:59:14;97843.63;;;13.55;80.07
64876;BME280;51369;49.862;9.908;2023-08-07T03:01:40;97846.44;;;13.54;80.72
64876;BME280;51369;49.862;9.908;2023-08-07T03:04:05;97838.38;;;13.52;80.23
64876;BME280;51369;49.862;9.908;2023-08-07T03:06:31;97843.81;;;13.52;80.84
64876;BME280;51369;49.862;9.908;2023-08-07T03:08:56;97844.78;;;13.51;80.20
64876;BME280;51369;49.862;9.908;2023-08-07T03:11:22;97842.06;;;13.51;80.55
64876;BME280;51369;49.862;9.908;2023-08-07T03:13:47;97851.19;;;13.50;80.11
64876;BME280;51369;49.862;9.908;2023-08-07T03:16:14;97848.47;;;13.50;80.06
64876;BME280;51369;49.862;9.908;2023-08-07T03:18:40;97857.66;;;13.48;79.66
64876;BME280;51369;49.862;9.908;2023-08-07T03:21:05;97844.97;;;13.48;79.71
64876;BME280;51369;49.862;9.908;2023-08-07T03:23:31;97856.78;;;13.47;80.59
64876;BME280;51369;49.862;9.908;2023-08-07T03:26:07;97858.81;;;13.44;79.28
64876;BME280;51369;49.862;9.908;2023-08-07T03:28:34;97856.00;;;13.45;79.96
64876;BME280;51369;49.862;9.908;2023-08-07T03:31:00;97860.47;;;13.46;80.51
64876;BME280;51369;49.862;9.908;2023-08-07T03:33:28;97856.97;;;13.44;79.70
64876;BME280;51369;49.862;9.908;2023-08-07T03:35:53;97853.50;;;13.42;79.96
64876;BME280;51369;49.862;9.908;2023-08-07T03:38:19;97855.44;;;13.40;80.31
64876;BME280;51369;49.862;9.908;2023-08-07T03:40:46;97864.44;;;13.41;80.02
64876;BME280;51369;49.862;9.908;2023-08-07T03:43:13;97861.81;;;13.39;79.63
64876;BME280;51369;49.862;9.908;2023-08-07T03:45:39;97865.41;;;13.40;80.28
64876;BME280;51369;49.862;9.908;2023-08-07T03:48:05;97878.00;;;13.41;81.33
64876;BME280;51369;49.862;9.908;2023-08-07T03:50:30;97875.28;;;13.41;81.28
64876;BME280;51369;49.862;9.908;2023-08-07T03:52:56;97878.97;;;13.40;81.46
64876;BME280;51369;49.862;9.908;2023-08-07T03:55:21;97883.59;;;13.38;81.17
64876;BME280;51369;49.862;9.908;2023-08-07T03:57:47;97881.97;;;13.35;81.42
64876;BME280;51369;49.862;9.908;2023-08-07T04:00:12;97875.66;;;13.34;80.59
64876;BME280;51369;49.862;9.908;2023-08-07T04:02:41;97881.09;;;13.34;80.24
64876;BME280;51369;49.862;9.908;2023-08-07T04:05:09;97874.78;;;13.34;80.86
64876;BME280;51369;49.862;9.908;2023-08-07T04:07:34;97878.38;;;13.34;80.64
64876;BME280;51369;49.862;9.908;2023-08-07T04:09:59;97881.28;;;13.31;80.41
64876;BME280;51369;49.862;9.908;2023-08-07T04:12:25;97880.41;;;13.31;80.96
64876;BME280;51369;49.862;9.908;2023-08-07T04:14:50;97882.06;;;13.33;81.44
64876;BME280;51369;49.862;9.908;2023-08-07T04:17:17;97882.94;;;13.34;82.10
64876;BME280;51369;49.862;9.908;2023-08-07T04:19:42;97883.97;;;13.31;80.16
64876;BME280;51369;49.862;9.908;2023-08-07T04:22:08;97876.72;;;13.32;81.05
64876;BME280;51369;49.862;9.908;2023-08-07T04:24:33;97887.56;;;13.32;81.33
64876;BME280;51369;49.862;9.908;2023-08-07T04:26:58;97887.66;;;13.30;81.70
64876;BME280;51369;49.862;9.908;2023-08-07T04:29:24;97895.88;;;13.29;80.80
64876;BME280;51369;49.862;9.908;2023-08-07T04:31:49;97894.06;;;13.29;81.36
64876;BME280;51369;49.862;9.908;2023-08-07T04:34:15;97888.63;;;13.29;81.11
64876;BME280;51369;49.862;9.908;2023-08-07T04:36:40;97901.31;;;13.29;81.01
64876;BME280;51369;49.862;9.908;2023-08-07T04:39:06;97897.81;;;13.27;80.69
64876;BME280;51369;49.862;9.908;2023-08-07T04:41:32;97895.19;;;13.25;80.35
64876;BME280;51369;49.862;9.908;2023-08-07T04:43:57;97897.13;;;13.23;80.22
64876;BME280;51369;49.862;9.908;2023-08-07T04:46:23;97901.69;;;13.23;80.18
64876;BME280;51369;49.862;9.908;2023-08-07T04:48:48;97902.66;;;13.22;80.54
64876;BME280;51369;49.862;9.908;2023-08-07T04:51:13;97917.94;;;13.23;81.25
64876;BME280;51369;49.862;9.908;2023-08-07T04:53:39;97907.09;;;13.23;80.38
64876;BME280;51369;49.862;9.908;2023-08-07T04:56:04;97910.88;;;13.20;80.34
64876;BME280;51369;49.862;9.908;2023-08-07T04:58:30;97906.41;;;13.19;81.05
64876;BME280;51369;49.862;9.908;2023-08-07T05:00:56;97905.56;;;13.19;81.45
64876;BME280;51369;49.862;9.908;2023-08-07T05:03:21;97910.00;;;13.20;81.42
64876;BME280;51369;49.862;9.908;2023-08-07T05:05:47;97908.16;;;13.20;81.63
64876;BME280;51369;49.862;9.908;2023-08-07T05:08:12;97908.25;;;13.19;80.74
64876;BME280;51369;49.862;9.908;2023-08-07T05:10:37;97915.44;;;13.20;81.68
64876;BME280;51369;49.862;9.908;2023-08-07T05:13:03;97915.34;;;13.21;81.94
64876;BME280;51369;49.862;9.908;2023-08-07T05:15:28;97920.84;;;13.20;81.49
64876;BME280;51369;49.862;9.908;2023-08-07T05:17:55;97924.44;;;13.20;81.35
64876;BME280;51369;49.862;9.908;2023-08-07T05:20:21;97926.19;;;13.21;81.32
64876;BME280;51369;49.862;9.908;2023-08-07T05:22:46;97921.63;;;13.22;81.30
64876;BME280;51369;49.862;9.908;2023-08-07T05:25:11;97921.72;;;13.20;80.88
64876;BME280;51369;49.862;9.908;2023-08-07T05:27:41;97930.53;;;13.24;82.33
64876;BME280;51369;49.862;9.908;2023-08-07T05:30:07;97938.66;;;13.24;81.58
64876;BME280;51369;49.862;9.908;2023-08-07T05:32:32;97936.84;;;13.24;81.43
64876;BME280;51369;49.862;9.908;2023-08-07T05:34:58;97939.44;;;13.26;81.07
64876;BME280;51369;49.862;9.908;2023-08-07T05:37:23;97934.03;;;13.26;81.56
64876;BME280;51369;49.862;9.908;2023-08-07T05:39:49;97942.94;;;13.28;81.13
64876;BME280;51369;49.862;9.908;2023-08-07T05:42:14;97950.88;;;13.31;81.65
64876;BME280;51369;49.862;9.908;2023-08-07T05:44:40;97936.28;;;13.33;82.26
64876;BME280;51369;49.862;9.908;2023-08-07T05:47:06;97940.72;;;13.34;82.25
64876;BME280;51369;49.862;9.908;2023-08-07T05:49:31;97951.50;;;13.36;81.99
64876;BME280;51369;49.862;9.908;2023-08-07T05:51:57;97943.34;;;13.36;80.88
64876;BME280;51369;49.862;9.908;2023-08-07T05:54:22;97957.78;;;13.37;81.83
64876;BME280;51369;49.862;9.908;2023-08-07T05:56:48;97947.81;;;13.37;81.60
64876;BME280;51369;49.862;9.908;2023-08-07T05:59:13;97953.22;;;13.37;81.23
64876;BME280;51369;49.862;9.908;2023-08-07T06:01:38;97954.09;;;13.38;81.50
64876;BME280;51369;49.862;9.908;2023-08-07T06:04:04;97956.81;;;13.38;81.17
64876;BME280;51369;49.862;9.908;2023-08-07T06:06:29;97954.97;;;13.38;81.41
64876;BME280;51369;49.862;9.908;2023-08-07T06:08:56;97968.44;;;13.40;81.37
64876;BME280;51369;49.862;9.908;2023-08-07T06:11:21;97970.28;;;13.39;81.01
64876;BME280;51369;49.862;9.908;2023-08-07T06:13:47;97966.69;;;13.39;81.41
64876;BME280;51369;49.862;9.908;2023-08-07T06:16:12;97972.13;;;13.39;80.87
64876;BME280;51369;49.862;9.908;2023-08-07T06:18:37;97969.31;;;13.40;81.44
64876;BME280;51369;49.862;9.908;2023-08-07T06:21:03;97970.97;;;13.43;80.49
64876;BME280;51369;49.862;9.908;2023-08-07T06:23:32;97972.81;;;13.42;80.05
64876;BME280;51369;49.862;9.908;2023-08-07T06:25:57;97980.75;;;13.45;80.74
64876;BME280;51369;49.862;9.908;2023-08-07T06:28:23;97971.66;;;13.46;80.84
64876;BME280;51369;49.862;9.908;2023-08-07T06:30:48;97986.09;;;13.47;79.92
64876;BME280;51369;49.862;9.908;2023-08-07T06:33:14;97983.28;;;13.48;80.33
64876;BME280;51369;49.862;9.908;2023-08-07T06:35:40;97975.94;;;13.50;80.66
64876;BME280;51369;49.862;9.908;2023-08-07T06:38:05;97970.41;;;13.52;80.93
64876;BME280;51369;49.862;9.908;2023-08-07T06:40:31;97975.75;;;13.53;80.11
64876;BME280;51369;49.862;9.908;2023-08-07T06:42:56;97990.28;;;13.52;80.12
64876;BME280;51369;49.862;9.908;2023-08-07T06:45:22;97983.69;;;13.56;80.24
64876;BME280;51369;49.862;9.908;2023-08-07T06:47:47;97987.19;;;13.58;80.48
64876;BME280;51369;49.862;9.908;2023-08-07T06:50:13;97985.34;;;13.59;80.15
64876;BME280;51369;49.862;9.908;2023-08-07T06:52:39;97987.09;;;13.60;79.72
64876;BME280;51369;49.862;9.908;2023-08-07T06:55:05;97998.72;;;13.62;79.37
64876;BME280;51369;49.862;9.908;2023-08-07T06:57:31;97991.28;;;13.65;79.87
64876;BME280;51369;49.862;9.908;2023-08-07T06:59:57;98001.16;;;13.66;79.18
64876;BME280;51369;49.862;9.908;2023-08-07T07:02:22;97997.38;;;13.69;79.16
64876;BME280;51369;49.862;9.908;2023-08-07T07:04:47;98003.50;;;13.73;79.50
64876;BME280;51369;49.862;9.908;2023-08-07T07:07:13;98000.69;;;13.74;79.55
64876;BME280;51369;49.862;9.908;2023-08-07T07:09:38;98005.91;;;13.77;79.68
64876;BME280;51369;49.862;9.908;2023-08-07T07:12:04;98017.47;;;13.81;79.72
64876;BME280;51369;49.862;9.908;2023-08-07T07:14:29;98011.84;;;13.84;79.88
64876;BME280;51369;49.862;9.908;2023-08-07T07:16:54;98017.06;;;13.87;79.45
64876;BME280;51369;49.862;9.908;2023-08-07T07:19:20;98005.13;;;13.89;78.95
64876;BME280;51369;49.862;9.908;2023-08-07T07:21:46;98018.50;;;13.92;79.28
64876;BME280;51369;49.862;9.908;2023-08-07T07:24:11;98019.19;;;13.96;79.02
64876;BME280;51369;49.862;9.908;2023-08-07T07:26:36;98034.50;;;13.97;79.05
64876;BME280;51369;49.862;9.908;2023-08-07T07:29:02;98029.97;;;13.97;79.82
64876;BME280;51369;49.862;9.908;2023-08-07T07:31:27;98037.03;;;14.00;79.71
64876;BME280;51369;49.862;9.908;2023-08-07T07:33:52;98040.44;;;14.04;78.99
64876;BME280;51369;49.862;9.908;2023-08-07T07:36:18;98047.50;;;14.06;78.95
64876;BME280;51369;49.862;9.908;2023-08-07T07:38:45;98049.16;;;14.09;78.58
64876;BME280;51369;49.862;9.908;2023-08-07T07:41:11;98056.25;;;14.11;78.83
64876;BME280;51369;49.862;9.908;2023-08-07T07:43:37;98062.47;;;14.13;78.88
64876;BME280;51369;49.862;9.908;2023-08-07T07:46:03;98057.03;;;14.13;78.58
64876;BME280;51369;49.862;9.908;2023-08-07T07:48:28;98069.53;;;14.16;77.87
64876;BME280;51369;49.862;9.908;2023-08-07T07:51:03;98065.84;;;14.17;77.60
64876;BME280;51369;49.862;9.908;2023-08-07T07:53:29;98061.97;;;14.21;78.96
64876;BME280;51369;49.862;9.908;2023-08-07T07:55:55;98069.94;;;14.24;77.77
64876;BME280;51369;49.862;9.908;2023-08-07T07:58:21;98066.16;;;14.26;77.29
64876;BME280;51369;49.862;9.908;2023-08-07T08:00:47;98075.84;;;14.30;77.08
64876;BME280;51369;49.862;9.908;2023-08-07T08:03:12;98071.09;;;14.34;77.30
64876;BME280;51369;49.862;9.908;2023-08-07T08:05:38;98073.63;;;14.37;77.55
64876;BME280;51369;49.862;9.908;2023-08-07T08:08:05;98095.09;;;14.42;77.22
64876;BME280;51369;49.862;9.908;2023-08-07T08:10:33;98087.72;;;14.44;77.37
64876;BME280;51369;49.862;9.908;2023-08-07T08:12:59;98092.09;;;14.46;76.91
64876;BME280;51369;49.862;9.908;2023-08-07T08:15:25;98094.72;;;14.48;77.21
64876;BME280;51369;49.862;9.908;2023-08-07T08:17:50;98099.19;;;14.49;76.93
64876;BME280;51369;49.862;9.908;2023-08-07T08:20:15;98094.63;;;14.49;76.98
64876;BME280;51369;49.862;9.908;2023-08-07T08:22:43;98105.50;;;14.49;76.67
64876;BME280;51369;49.862;9.908;2023-08-07T08:25:09;98093.56;;;14.52;76.63
64876;BME280;51369;49.862;9.908;2023-08-07T08:27:35;98098.78;;;14.55;76.67
64876;BME280;51369;49.862;9.908;2023-08-07T08:30:01;98108.69;;;14.56;76.51
64876;BME280;51369;49.862;9.908;2023-08-07T08:32:26;98100.44;;;14.57;77.00
64876;BME280;51369;49.862;9.908;2023-08-07T08:34:51;98108.31;;;14.62;77.25
64876;BME280;51369;49.862;9.908;2023-08-07T08:37:17;98112.56;;;14.66;77.33
64876;BME280;51369;49.862;9.908;2023-08-07T08:39:42;98105.19;;;14.68;76.93
64876;BME280;51369;49.862;9.908;2023-08-07T08:42:10;98120.53;;;14.69;76.11
64876;BME280;51369;49.862;9.908;2023-08-07T08:44:39;98134.91;;;14.71;76.45
64876;BME280;51369;49.862;9.908;2023-08-07T08:47:04;98123.06;;;14.72;76.26
64876;BME280;51369;49.862;9.908;2023-08-07T08:49:45;98139.28;;;14.74;76.25
64876;BME280;51369;49.862;9.908;2023-08-07T08:52:12;98127.53;;;14.73;76.19
64876;BME280;51369;49.862;9.908;2023-08-07T08:54:38;98142.84;;;14.74;75.66
64876;BME280;51369;49.862;9.908;2023-08-07T08:57:06;98144.50;;;14.77;76.43
64876;BME280;51369;49.862;9.908;2023-08-07T08:59:32;98140.63;;;14.81;76.49
64876;BME280;51369;49.862;9.908;2023-08-07T09:01:58;98130.25;;;14.87;76.45
64876;BME280;51369;49.862;9.908;2023-08-07T09:04:24;98148.78;;;14.95;75.92
64876;BME280;51369;49.862;9.908;2023-08-07T09:06:49;98153.72;;;15.03;75.99
64876;BME280;51369;49.862;9.908;2023-08-07T09:09:16;98144.19;;;15.10;76.43
64876;BME280;51369;49.862;9.908;2023-08-07T09:11:43;98149.25;;;15.16;75.96
64876;BME280;51369;49.862;9.908;2023-08-07T09:14:15;98157.78;;;15.24;76.24
64876;BME280;51369;49.862;9.908;2023-08-07T09:16:41;98158.25;;;15.30;75.12
64876;BME280;51369;49.862;9.908;2023-08-07T09:19:07;98156.97;;;15.36;75.55
64876;BME280;51369;49.862;9.908;2023-08-07T09:21:33;98154.81;;;15.41;74.92
64876;BME280;51369;49.862;9.908;2023-08-07T09:24:00;98147.13;;;15.48;74.62
64876;BME280;51369;49.862;9.908;2023-08-07T09:26:25;98159.47;;;15.53;73.99
64876;BME280;51369;49.862;9.908;2023-08-07T09:28:53;98148.56;;;15.53;74.48
64876;BME280;51369;49.862;9.908;2023-08-07T09:31:20;98154.88;;;15.54;73.79
64876;BME280;51369;49.862;9.908;2023-08-07T09:33:47;98165.88;;;15.52;74.09
64876;BME280;51369;49.862;9.908;2023-08-07T09:36:13;98173.84;;;15.55;74.28
64876;BME280;51369;49.862;9.908;2023-08-07T09:38:39;98175.59;;;15.56;74.08
64876;BME280;51369;49.862;9.908;2023-08-07T09:41:04;98167.53;;;15.55;73.80
64876;BME280;51369;49.862;9.908;2023-08-07T09:43:34;98183.94;;;15.53;73.78
64876;BME280;51369;49.862;9.908;2023-08-07T09:46:04;98181.22;;;15.53;74.24
64876;BME280;51369;49.862;9.908;2023-08-07T09:48:29;98183.84;;;15.55;74.17
64876;BME280;51369;49.862;9.908;2023-08-07T09:50:58;98192.88;;;15.55;73.99
64876;BME280;51369;49.862;9.908;2023-08-07T09:53:26;98188.25;;;15.57;73.52
64876;BME280;51369;49.862;9.908;2023-08-07T09:55:53;98186.47;;;15.56;74.10
64876;BME280;51369;49.862;9.908;2023-08-07T09:58:18;98187.03;;;15.61;74.21
64876;BME280;51369;49.862;9.908;2023-08-07T10:00:46;98210.34;;;15.66;74.09
64876;BME280;51369;49.862;9.908;2023-08-07T10:03:12;98196.75;;;15.66;74.04
64876;BME280;51369;49.862;9.908;2023-08-07T10:05:38;98201.31;;;15.65;73.47
64876;BME280;51369;49.862;9.908;2023-08-07T10:08:03;98211.34;;;15.65;73.83
64876;BME280;51369;49.862;9.908;2023-08-07T10:10:32;98207.72;;;15.64;73.99
64876;BME280;51369;49.862;9.908;2023-08-07T10:13:00;98204.13;;;15.63;73.66
64876;BME280;51369;49.862;9.908;2023-08-07T10:15:26;98210.56;;;15.62;73.25
64876;BME280;51369;49.862;9.908;2023-08-07T10:17:52;98204.34;;;15.60;73.74
64876;BME280;51369;49.862;9.908;2023-08-07T10:20:17;98209.69;;;15.62;74.27
64876;BME280;51369;49.862;9.908;2023-08-07T10:22:44;98212.97;;;15.67;74.67
64876;BME280;51369;49.862;9.908;2023-08-07T10:25:10;98210.16;;;15.69;74.24
64876;BME280;51369;49.862;9.908;2023-08-07T10:27:38;98201.00;;;15.70;74.26
64876;BME280;51369;49.862;9.908;2023-08-07T10:30:07;98206.66;;;15.67;73.81
64876;BME280;51369;49.862;9.908;2023-08-07T10:32:34;98212.00;;;15.68;73.90
64876;BME280;51369;49.862;9.908;2023-08-07T10:35:04;98215.81;;;15.66;74.04
64876;BME280;51369;49.862;9.908;2023-08-07T10:37:41;98213.06;;;15.66;74.61
64876;BME280;51369;49.862;9.908;2023-08-07T10:40:09;98220.28;;;15.67;74.36
64876;BME280;51369;49.862;9.908;2023-08-07T10:45:20;98214.16;;;15.63;74.02
64876;BME280;51369;49.862;9.908;2023-08-07T10:50:32;98223.69;;;15.56;73.83
64876;BME280;51369;49.862;9.908;2023-08-07T10:53:02;98225.75;;;15.52;73.56
64876;BME280;51369;49.862;9.908;2023-08-07T10:55:31;98231.38;;;15.49;74.29
64876;BME280;51369;49.862;9.908;2023-08-07T10:57:57;98242.38;;;15.48;74.15
64876;BME280;51369;49.862;9.908;2023-08-07T11:00:26;98227.31;;;15.42;73.87
64876;BME280;51369;49.862;9.908;2023-08-07T11:02:52;98233.72;;;15.41;74.28
64876;BME280;51369;49.862;9.908;2023-08-07T11:05:17;98238.38;;;15.39;74.31
64876;BME280;51369;49.862;9.908;2023-08-07T11:07:43;98242.19;;;15.37;74.52
64876;BME280;51369;49.862;9.908;2023-08-07T11:10:13;98235.88;;;15.36;74.16
64876;BME280;51369;49.862;9.908;2023-08-07T11:12:39;98240.44;;;15.36;74.63
64876;BME280;51369;49.862;9.908;2023-08-07T11:15:05;98234.78;;;15.39;75.05
64876;BME280;51369;49.862;9.908;2023-08-07T11:17:31;98238.38;;;15.39;75.44
64876;BME280;51369;49.862;9.908;2023-08-07T11:19:56;98237.13;;;15.45;75.52
64876;BME280;51369;49.862;9.908;2023-08-07T11:22:22;98243.13;;;15.50;74.75
64876;BME280;51369;49.862;9.908;2023-08-07T11:24:48;98237.41;;;15.54;75.33
64876;BME280;51369;49.862;9.908;2023-08-07T11:27:14;98236.44;;;15.55;74.26
64876;BME280;51369;49.862;9.908;2023-08-07T11:29:39;98238.19;;;15.56;73.44
64876;BME280;51369;49.862;9.908;2023-08-07T11:32:05;98232.72;;;15.56;74.40
64876;BME280;51369;49.862;9.908;2023-08-07T11:34:31;98247.31;;;15.55;74.03
64876;BME280;51369;49.862;9.908;2023-08-07T11:36:57;98241.88;;;15.55;74.40
64876;BME280;51369;49.862;9.908;2023-08-07T11:39:23;98241.97;;;15.54;74.06
64876;BME280;51369;49.862;9.908;2023-08-07T11:41:53;98251.09;;;15.53;74.92
64876;BME280;51369;49.862;9.908;2023-08-07T11:44:19;98248.38;;;15.53;74.42
64876;BME280;51369;49.862;9.908;2023-08-07T11:46:45;98248.28;;;15.54;75.15
64876;BME280;51369;49.862;9.908;2023-08-07T11:49:10;98246.44;;;15.55;75.77
64876;BME280;51369;49.862;9.908;2023-08-07T11:51:36;98247.31;;;15.55;74.96
64876;BME280;51369;49.862;9.908;2023-08-07T11:54:02;98245.41;;;15.57;74.62
64876;BME280;51369;49.862;9.908;2023-08-07T11:56:29;98250.59;;;15.60;74.75
64876;BME280;51369;49.862;9.908;2023-08-07T11:58:56;98246.91;;;15.61;74.57
64876;BME280;51369;49.862;9.908;2023-08-07T12:01:23;98269.47;;;15.63;74.12
64876;BME280;51369;49.862;9.908;2023-08-07T12:03:54;98264.88;;;15.64;73.94
64876;BME280;51369;49.862;9.908;2023-08-07T12:06:20;98267.41;;;15.67;74.46
64876;BME280;51369;49.862;9.908;2023-08-07T12:08:48;98275.38;;;15.70;74.26
64876;BME280;51369;49.862;9.908;2023-08-07T12:11:14;98265.25;;;15.72;74.07
64876;BME280;51369;49.862;9.908;2023-08-07T12:13:42;98275.06;;;15.75;74.12
64876;BME280;51369;49.862;9.908;2023-08-07T12:16:08;98263.88;;;15.79;74.07
64876;BME280;51369;49.862;9.908;2023-08-07T12:18:34;98271.66;;;15.85;74.68
64876;BME280;51369;49.862;9.908;2023-08-07T12:21:03;98281.06;;;15.94;74.30
64876;BME280;51369;49.862;9.908;2023-08-07T12:23:32;98274.25;;;16.01;73.94
64876;BME280;51369;49.862;9.908;2023-08-07T12:25:58;98275.47;;;16.10;74.10
64876;BME280;51369;49.862;9.908;2023-08-07T12:28:23;98273.13;;;16.18;73.39
64876;BME280;51369;49.862;9.908;2023-08-07T12:30:50;98271.63;;;16.26;73.48
64876;BME280;51369;49.862;9.908;2023-08-07T12:33:16;98286.69;;;16.32;73.05
64876;BME280;51369;49.862;9.908;2023-08-07T12:35:41;98294.66;;;16.35;72.89
64876;BME280;51369;49.862;9.908;2023-08-07T12:38:07;98296.50;;;16.35;73.23
64876;BME280;51369;49.862;9.908;2023-08-07T12:40:34;98297.78;;;16.29;72.39
64876;BME280;51369;49.862;9.908;2023-08-07T12:43:02;98299.84;;;16.25;72.86
64876;BME280;51369;49.862;9.908;2023-08-07T12:45:27;98299.28;;;16.20;72.45
64876;BME280;51369;49.862;9.908;2023-08-07T12:47:52;98302.41;;;16.14;72.84
64876;BME280;51369;49.862;9.908;2023-08-07T12:50:18;98308.25;;;16.08;73.58
64876;BME280;51369;49.862;9.908;2023-08-07T12:52:44;98310.41;;;16.03;73.37
64876;BME280;51369;49.862;9.908;2023-08-07T12:55:10;98309.75;;;16.00;74.16
64876;BME280;51369;49.862;9.908;2023-08-07T12:57:37;98310.63;;;16.00;73.44
64876;BME280;51369;49.862;9.908;2023-08-07T13:00:02;98319.84;;;15.98;73.18